Aérodrome :
LOGIN :

S'inscrire | Disclaimer

   EN    FR    IT 

 










Légende :    VFR   VFR Marginal   IFR   IFR Intensif   IFR Très Intensif
Visi : 
Plafond : 
>= 8 km
>= 3000ft
5 à 8 km
1000 à 3000 ft
1500m à 5 km
500 à 1000 ft
800 à 1500m
200 à 500 ft
< 800m
< 200 ft
Symboles :   Orages  Brouillard  Fortes neiges  Fortes précipitations  Vent > 20 kt
SIGMETs :   Divers  Orages  Givrage  Turbulence  Onde Orograph.  Cendres Volcan.







- Altitude de l'aérodrome : 348 ft
- Code IATA : STN
- Voir les cartes d'approche


EGSS - London Stansted

DERNIER METAR :
  • 241020Z AUTO 24007KT 220V290 9999 -RA NCD 12/08 Q1015

METARs EXPIRÉS :
  • 240950Z AUTO 26008KT 9999 NCD 12/07 Q1016
  • 240920Z AUTO 26009KT 9999 NCD 12/07 Q1016
  • 240850Z AUTO 26009KT 9999 NCD 12/07 Q1016
  • 240820Z AUTO 26008KT 9999 NCD 12/08 Q1015
  • 240750Z AUTO 25008KT 9999 NCD 12/08 Q1015

TAF TAF EGSS
Valide du 24 à 06h jusqu'au 25 à 12h UTC


240501Z 2406/2512 23010KT 9999 SCT016
TEMPO 2406/2413 8000 -RA BKN012
BECMG 2413/2416 BKN010
TEMPO 2413/2503 25015G25KT 3000 RADZ BKN006
PROB30
TEMPO 2416/2503 BKN004
BECMG 2503/2506 29010KT SCT015
PROB30
TEMPO 2510/2512 7000 SHRA
ATIS : +44 1279 669 325
Pas de NOTAMs connus pour ce terrain.



MET'MAP, la Météo Aéronautique d'un coup d'oeil ! - Copyright ORBIFLY Décembre 2007 - Disclaimer

ORBIFLY MET'MAP TEAM :

Programmation & Développement : Alexandra Zaïnal
Conception & Développement : Baudouin d'Aumeries
Co-Programmation & Développement : Marc-Olivier Méhu
Soutien technique & logistique : Manuel Goepfert

Contact : metmap@orbifly.com




SOURCES & CREDITS :

   NOAA